createdAt,value
2019-05-14T00:46:31.610Z,95320.00
2019-05-14T00:56:33.326Z,95319.31
2019-05-14T01:06:34.755Z,95310.78
2019-05-14T01:16:36.197Z,95309.23
2019-05-14T01:26:37.621Z,95296.47
2019-05-14T01:36:41.200Z,95291.55
2019-05-14T01:46:42.552Z,95276.81
2019-05-14T01:56:44.124Z,95274.48
2019-05-14T02:06:45.713Z,95263.80
2019-05-14T02:16:47.173Z,95267.30
2019-05-14T02:26:48.577Z,95253.98
2019-05-14T02:36:50.050Z,95240.47
2019-05-14T02:46:52.669Z,95234.30
2019-05-14T02:56:54.102Z,95221.55
2019-05-14T03:06:55.538Z,95213.27
2019-05-14T03:16:59.434Z,95211.19
2019-05-14T03:27:00.821Z,95213.25
2019-05-14T03:37:03.859Z,95209.81
2019-05-14T03:47:09.987Z,95203.62
2019-05-14T03:57:09.817Z,95207.05
2019-05-14T04:07:12.481Z,95208.12
2019-05-14T04:17:31.667Z,95210.77
2019-05-14T04:27:23.818Z,95200.89
2019-05-14T04:37:28.810Z,95213.09
2019-05-14T04:47:36.007Z,95210.83
2019-05-14T04:57:33.044Z,95209.38
2019-05-14T05:07:34.460Z,95215.81
2019-05-14T05:17:44.207Z,95202.28
2019-05-14T05:27:40.395Z,95201.95
2019-05-14T05:37:41.825Z,95197.09
2019-05-14T05:47:54.433Z,95191.20
2019-05-14T05:57:49.059Z,95178.88
2019-05-14T06:07:50.065Z,95172.88
2019-05-14T06:17:51.697Z,95153.03
2019-05-14T06:27:53.313Z,95154.19
2019-05-14T06:37:55.040Z,95153.94
2019-05-14T06:47:56.509Z,95143.47
2019-05-14T06:57:58.499Z,95135.48
2019-05-14T07:08:00.114Z,95138.98
2019-05-14T07:18:01.545Z,95122.73
2019-05-14T07:28:03.117Z,95120.70
2019-05-14T07:38:04.540Z,95135.30
2019-05-14T07:48:05.988Z,95146.91
2019-05-14T07:58:09.459Z,95158.92
2019-05-14T08:08:11.085Z,95141.92
2019-05-14T08:18:14.372Z,95107.13
2019-05-14T08:28:18.305Z,95096.66
2019-05-14T08:38:19.486Z,95096.48
2019-05-14T08:48:20.935Z,95089.20
2019-05-14T08:58:22.607Z,95074.28
2019-05-14T09:08:24.227Z,95087.87
2019-05-14T09:18:25.699Z,95076.05
2019-05-14T09:28:28.475Z,95071.51
2019-05-14T09:38:30.184Z,95086.44
2019-05-14T09:48:31.614Z,95067.27
2019-05-14T09:58:34.376Z,95068.64
2019-05-14T10:08:35.991Z,95053.06
2019-05-14T10:18:38.011Z,95054.08
2019-05-14T10:28:43.424Z,95069.49
2019-05-14T10:38:44.406Z,95045.59
2019-05-14T10:48:46.043Z,95061.47
2019-05-14T10:58:49.110Z,95059.22
2019-05-14T11:08:50.935Z,95022.70
2019-05-14T11:18:52.474Z,95034.14
2019-05-14T11:28:53.924Z,95022.72
2019-05-14T11:38:55.450Z,95016.55
2019-05-14T11:48:59.437Z,95009.75
2019-05-14T11:59:00.377Z,94996.92
2019-05-14T12:09:04.614Z,94986.78
2019-05-14T12:19:06.592Z,94982.87
2019-05-14T12:29:09.888Z,94973.25
2019-05-14T12:39:11.405Z,94964.84
2019-05-14T12:49:13.045Z,94961.66
2019-05-14T12:59:14.599Z,94966.63
2019-05-14T13:09:20.792Z,94962.57
2019-05-14T13:19:19.509Z,94962.66
2019-05-14T13:29:21.063Z,94950.83
2019-05-14T13:39:22.498Z,94935.23
2019-05-14T13:49:23.920Z,94930.38
2019-05-14T13:59:25.497Z,94913.80
2019-05-14T14:09:28.415Z,94892.66
2019-05-14T14:19:30.504Z,94885.68
2019-05-14T14:29:32.158Z,94857.78
2019-05-14T14:39:34.737Z,94878.56
2019-05-14T14:49:36.196Z,94860.09
2019-05-14T14:59:39.166Z,94844.52
2019-05-14T15:09:40.830Z,94860.71
2019-05-14T15:19:43.910Z,94851.08
2019-05-14T15:29:45.502Z,94845.03
2019-05-14T15:39:49.070Z,94850.55
2019-05-14T15:49:52.967Z,94822.50
2019-05-14T15:59:54.480Z,94824.57
2019-05-14T16:09:55.935Z,94826.81
2019-05-14T16:19:57.699Z,94814.23
2019-05-14T16:29:59.172Z,94813.56
2019-05-14T16:40:00.738Z,94801.41
2019-05-14T16:50:08.692Z,94795.46
2019-05-14T17:00:10.268Z,94799.69
2019-05-14T17:10:12.873Z,94796.56
2019-05-14T17:20:14.566Z,94794.45
2019-05-14T17:30:18.249Z,94811.49
2019-05-14T17:40:19.792Z,94806.09
2019-05-14T17:50:21.248Z,94790.48
2019-05-14T18:00:23.307Z,94791.58
2019-05-14T18:10:25.085Z,94803.22
2019-05-14T18:20:28.663Z,94805.04
2019-05-14T18:30:30.088Z,94819.64
2019-05-14T18:40:31.537Z,94809.05
2019-05-14T18:50:33.210Z,94813.13
2019-05-14T19:00:34.870Z,94815.31
2019-05-14T19:10:39.029Z,94818.83
2019-05-14T19:20:40.002Z,94825.15
2019-05-14T19:30:41.867Z,94828.06
2019-05-14T19:40:43.465Z,94834.00
2019-05-14T19:50:44.885Z,94839.83
2019-05-14T20:00:48.692Z,94836.75
2019-05-14T20:10:49.908Z,94852.42
2019-05-14T20:20:51.948Z,94847.47
2019-05-14T20:30:53.364Z,94848.75
2019-05-14T20:40:54.933Z,94842.66
2019-05-14T20:50:58.452Z,94841.13
2019-05-14T21:01:00.138Z,94845.59
2019-05-14T21:11:01.892Z,94846.72
2019-05-14T21:21:03.421Z,94844.08
2019-05-14T21:31:05.052Z,94852.75
2019-05-14T21:41:06.477Z,94853.43
2019-05-14T21:51:08.741Z,94840.92
2019-05-14T22:01:10.577Z,94838.63
2019-05-14T22:11:12.109Z,94835.13
2019-05-14T22:21:13.545Z,94821.47
2019-05-14T22:31:17.085Z,94828.33
2019-05-14T22:41:18.597Z,94822.45
2019-05-14T22:51:20.233Z,94818.16
2019-05-14T23:01:21.757Z,94816.23
2019-05-14T23:11:23.287Z,94818.44
2019-05-14T23:21:24.715Z,94813.30
2019-05-14T23:31:28.342Z,94807.92
2019-05-14T23:41:29.683Z,94803.59
2019-05-14T23:51:31.259Z,94789.59
